createdAt,value
2023-02-05T00:02:18.678Z,1.60
2023-02-05T00:04:48.255Z,1.60
2023-02-05T00:07:16.267Z,1.60
2023-02-05T00:09:44.332Z,1.60
2023-02-05T00:12:12.729Z,1.60
2023-02-05T00:14:40.846Z,1.60
2023-02-05T00:17:08.813Z,1.50
2023-02-05T00:19:36.806Z,1.50
2023-02-05T00:22:06.150Z,1.50
2023-02-05T00:24:34.272Z,1.50
2023-02-05T00:27:02.365Z,1.40
2023-02-05T00:29:30.469Z,1.60
2023-02-05T00:31:58.548Z,1.60
2023-02-05T00:34:26.634Z,1.70
2023-02-05T00:36:54.768Z,1.60
2023-02-05T00:39:24.260Z,1.60
2023-02-05T00:41:52.657Z,1.70
2023-02-05T00:44:20.693Z,1.50
2023-02-05T00:46:48.694Z,1.60
2023-02-05T00:49:16.677Z,1.60
2023-02-05T00:51:44.675Z,1.50
2023-02-05T00:54:12.732Z,1.50
2023-02-05T00:56:42.081Z,1.50
2023-02-05T00:59:10.031Z,1.50
2023-02-05T01:01:38.058Z,1.40
2023-02-05T01:04:06.273Z,1.40
2023-02-05T01:06:34.401Z,1.30
2023-02-05T01:09:02.593Z,1.20
2023-02-05T01:11:30.748Z,1.10
2023-02-05T01:14:00.120Z,1.10
2023-02-05T01:16:28.274Z,1.10
2023-02-05T01:18:56.856Z,0.80
2023-02-05T01:21:25.315Z,0.90
2023-02-05T01:23:54.558Z,0.90
2023-02-05T01:26:22.659Z,0.90
2023-02-05T01:28:50.627Z,0.90
2023-02-05T01:31:20.718Z,0.90
2023-02-05T01:33:48.903Z,1.00
2023-02-05T01:36:17.002Z,1.00
2023-02-05T01:38:44.994Z,1.00
2023-02-05T01:41:14.337Z,1.00
2023-02-05T01:43:42.373Z,1.00
2023-02-05T01:46:22.917Z,1.00
2023-02-05T01:48:54.938Z,1.00
2023-02-05T01:51:23.698Z,1.00
2023-02-05T01:53:52.698Z,1.00
2023-02-05T01:56:24.080Z,1.00
2023-02-05T01:58:56.936Z,1.00
2023-02-05T02:01:27.563Z,1.00
2023-02-05T02:03:58.598Z,1.00
2023-02-05T02:06:26.795Z,1.10
2023-02-05T02:08:54.851Z,1.10
2023-02-05T02:11:24.677Z,1.10
2023-02-05T02:13:56.476Z,1.10
2023-02-05T02:16:28.018Z,1.20
2023-02-05T02:18:56.244Z,1.10
2023-02-05T02:21:50.992Z,1.20
2023-02-05T02:25:03.666Z,1.20
2023-02-05T02:27:37.774Z,1.20
2023-02-05T02:30:13.285Z,1.30
2023-02-05T02:32:44.630Z,1.30
2023-02-05T02:35:19.087Z,1.40
2023-02-05T02:37:54.306Z,1.70
2023-02-05T02:40:26.604Z,1.50
2023-02-05T02:43:01.772Z,1.50
2023-02-05T02:45:33.523Z,1.80
2023-02-05T02:48:02.271Z,1.80
2023-02-05T02:50:34.860Z,1.90
2023-02-05T02:53:05.867Z,1.70
2023-02-05T02:55:38.995Z,2.00
2023-02-05T02:58:11.259Z,1.80
2023-02-05T03:00:41.315Z,1.80
2023-02-05T03:03:12.911Z,1.80
2023-02-05T03:05:45.600Z,1.80
2023-02-05T03:08:19.656Z,1.90
2023-02-05T03:10:51.945Z,1.90
2023-02-05T03:13:21.525Z,1.90
2023-02-05T03:15:49.970Z,1.90
2023-02-05T03:18:19.624Z,2.00
2023-02-05T03:20:51.950Z,2.00
2023-02-05T03:23:20.115Z,2.30
2023-02-05T03:25:48.082Z,2.10
2023-02-05T03:28:16.645Z,2.10
2023-02-05T03:30:54.784Z,2.20
2023-02-05T03:33:45.200Z,2.30
2023-02-05T03:36:21.927Z,2.20
2023-02-05T03:39:00.460Z,2.30
2023-02-05T03:41:49.548Z,2.40
2023-02-05T03:44:35.016Z,2.30
2023-02-05T03:47:10.276Z,2.30
2023-02-05T03:49:52.541Z,2.40
2023-02-05T03:52:26.869Z,2.10
2023-02-05T03:55:04.749Z,2.40
2023-02-05T03:57:39.551Z,2.30
2023-02-05T04:00:09.210Z,2.50
2023-02-05T04:02:38.594Z,2.60
2023-02-05T04:05:07.185Z,2.60
2023-02-05T04:07:35.532Z,2.60
2023-02-05T04:10:03.559Z,2.70
2023-02-05T04:12:31.645Z,2.70
2023-02-05T04:14:59.704Z,2.70
2023-02-05T04:17:27.677Z,2.80
2023-02-05T04:19:57.042Z,2.80
2023-02-05T04:22:25.087Z,2.80
2023-02-05T04:24:53.133Z,2.90
2023-02-05T04:27:21.355Z,2.90
2023-02-05T04:29:49.499Z,2.90
2023-02-05T04:32:17.866Z,2.90
2023-02-05T04:34:45.991Z,2.90
2023-02-05T04:37:15.484Z,2.90
2023-02-05T04:39:43.499Z,3.00
2023-02-05T04:42:11.566Z,3.00
2023-02-05T04:44:39.594Z,3.00
2023-02-05T04:47:07.639Z,3.00
2023-02-05T04:49:35.880Z,3.00
2023-02-05T04:52:03.962Z,3.00
2023-02-05T04:54:33.418Z,3.10
2023-02-05T04:57:01.412Z,3.10
2023-02-05T04:59:30.294Z,3.10
2023-02-05T05:01:59.142Z,3.10
2023-02-05T05:04:27.517Z,3.10
2023-02-05T05:06:55.522Z,3.20
2023-02-05T05:09:24.188Z,3.10
2023-02-05T05:11:54.076Z,3.10
2023-02-05T05:14:22.217Z,3.10
2023-02-05T05:16:50.984Z,3.20
2023-02-05T05:19:18.942Z,3.20
2023-02-05T05:21:47.053Z,3.10
2023-02-05T05:24:15.067Z,3.20
2023-02-05T05:26:45.142Z,3.40
2023-02-05T05:29:15.347Z,3.30
2023-02-05T05:31:43.694Z,3.30
2023-02-05T05:34:11.762Z,3.30
2023-02-05T05:36:43.632Z,3.30
2023-02-05T05:39:29.517Z,3.30
2023-02-05T05:42:15.155Z,3.30
2023-02-05T05:44:44.692Z,3.30
2023-02-05T05:47:12.687Z,3.30
2023-02-05T05:49:40.678Z,3.40
2023-02-05T05:52:08.665Z,3.30
2023-02-05T05:54:36.650Z,3.30
2023-02-05T05:57:05.332Z,3.60
2023-02-05T05:59:33.344Z,3.40
2023-02-05T06:02:04.210Z,3.40
2023-02-05T06:04:32.427Z,3.40
2023-02-05T06:07:02.265Z,3.40
2023-02-05T06:09:30.421Z,3.50
2023-02-05T06:11:58.382Z,3.50
2023-02-05T06:14:26.421Z,3.50
2023-02-05T06:16:55.888Z,3.50
2023-02-05T06:19:25.485Z,3.60
2023-02-05T06:21:53.551Z,3.60
2023-02-05T06:24:21.583Z,3.50
2023-02-05T06:26:49.684Z,3.50
2023-02-05T06:29:17.667Z,3.50
2023-02-05T06:31:45.893Z,3.60
2023-02-05T06:34:14.012Z,3.50
2023-02-05T06:36:43.430Z,3.50
2023-02-05T06:39:11.427Z,3.80
2023-02-05T06:41:39.449Z,3.60
2023-02-05T06:44:07.427Z,3.60
2023-02-05T06:46:35.455Z,3.60
2023-02-05T06:49:03.456Z,3.80
2023-02-05T06:51:31.588Z,3.60
2023-02-05T06:54:01.970Z,3.60
2023-02-05T06:56:30.098Z,3.80
2023-02-05T06:58:58.247Z,3.80
2023-02-05T07:01:26.263Z,4.10
2023-02-05T07:03:56.194Z,3.80
2023-02-05T07:06:24.720Z,3.70
2023-02-05T07:08:52.761Z,3.70
2023-02-05T07:11:22.755Z,3.70
2023-02-05T07:13:50.893Z,3.70
2023-02-05T07:16:19.491Z,3.70
2023-02-05T07:18:47.505Z,3.80
2023-02-05T07:21:17.619Z,3.80
2023-02-05T07:23:45.875Z,3.80
2023-02-05T07:26:16.325Z,3.80
2023-02-05T07:28:46.195Z,3.90
2023-02-05T07:31:16.199Z,3.80
2023-02-05T07:33:44.896Z,3.80
2023-02-05T07:36:16.227Z,3.80
2023-02-05T07:38:45.123Z,3.90
2023-02-05T07:41:15.161Z,3.70
2023-02-05T07:43:43.175Z,3.90
2023-02-05T07:46:15.235Z,3.80
2023-02-05T07:48:43.527Z,3.90
2023-02-05T07:51:16.902Z,3.80
2023-02-05T07:53:45.344Z,3.80
2023-02-05T07:56:13.663Z,3.80
2023-02-05T07:58:41.675Z,3.80
2023-02-05T08:01:10.349Z,3.80
2023-02-05T08:03:40.058Z,3.90
2023-02-05T08:06:09.758Z,3.80
2023-02-05T08:08:37.921Z,3.90
2023-02-05T08:11:07.489Z,4.00
2023-02-05T08:13:35.969Z,4.00
2023-02-05T08:16:06.801Z,4.20
2023-02-05T08:18:35.122Z,4.00
2023-02-05T08:21:04.800Z,4.10
2023-02-05T08:23:32.852Z,4.10
2023-02-05T08:26:01.593Z,4.40
2023-02-05T08:28:30.438Z,4.20
2023-02-05T08:30:58.739Z,4.30
2023-02-05T08:33:26.956Z,4.30
2023-02-05T08:35:55.022Z,4.30
2023-02-05T08:38:24.482Z,4.30
2023-02-05T08:40:52.507Z,4.40
2023-02-05T08:43:20.487Z,4.40
2023-02-05T08:45:48.968Z,4.40
2023-02-05T08:48:17.056Z,4.50
2023-02-05T08:50:46.627Z,4.60
2023-02-05T08:53:14.657Z,4.70
2023-02-05T08:55:46.151Z,4.80
2023-02-05T08:58:14.381Z,4.60
2023-02-05T09:00:42.385Z,4.90
2023-02-05T09:03:10.413Z,4.90
2023-02-05T09:05:40.023Z,4.80
2023-02-05T09:08:08.062Z,5.00
2023-02-05T09:10:36.355Z,5.10
2023-02-05T09:13:05.991Z,4.90
2023-02-05T09:15:34.328Z,5.00
2023-02-05T09:18:02.547Z,5.00
2023-02-05T09:20:30.670Z,5.00
2023-02-05T09:22:58.709Z,5.20
2023-02-05T09:25:29.317Z,5.10
2023-02-05T09:27:57.846Z,5.10
2023-02-05T09:30:27.279Z,5.10
2023-02-05T09:32:55.269Z,5.20
2023-02-05T09:35:23.349Z,5.20
2023-02-05T09:37:51.339Z,5.30
2023-02-05T09:40:22.153Z,5.30
2023-02-05T09:42:59.778Z,5.30
2023-02-05T09:45:40.730Z,5.30
2023-02-05T09:48:30.435Z,5.40
2023-02-05T09:50:59.542Z,5.40
2023-02-05T09:53:32.156Z,5.40
2023-02-05T09:56:01.635Z,5.40
2023-02-05T09:58:32.832Z,5.40
2023-02-05T10:01:05.321Z,5.40
2023-02-05T10:03:43.490Z,5.50
2023-02-05T10:06:26.019Z,5.60
2023-02-05T10:09:02.499Z,5.60
2023-02-05T10:11:40.247Z,5.70
2023-02-05T10:14:18.539Z,6.00
2023-02-05T10:17:13.647Z,6.00
2023-02-05T10:20:01.672Z,6.10
2023-02-05T10:22:37.613Z,6.30
2023-02-05T10:25:34.634Z,6.40
2023-02-05T10:28:12.333Z,6.40
2023-02-05T10:30:48.772Z,6.50
2023-02-05T10:33:22.529Z,6.70
2023-02-05T10:36:00.034Z,6.70
2023-02-05T10:38:32.361Z,6.90
2023-02-05T10:41:08.423Z,7.20
2023-02-05T10:43:42.026Z,7.30
2023-02-05T10:46:13.577Z,7.50
2023-02-05T10:48:46.247Z,7.50
2023-02-05T10:51:17.928Z,7.60
2023-02-05T10:53:46.005Z,7.60
2023-02-05T10:56:18.490Z,7.70
2023-02-05T10:58:50.603Z,7.80
2023-02-05T11:01:21.494Z,7.80
2023-02-05T11:04:01.513Z,7.80
2023-02-05T11:06:34.160Z,7.50
2023-02-05T11:09:02.365Z,7.50
2023-02-05T11:11:33.077Z,7.60
2023-02-05T11:14:03.764Z,7.40
2023-02-05T11:16:40.233Z,7.30
2023-02-05T11:19:21.981Z,7.30
2023-02-05T11:21:53.953Z,7.20
2023-02-05T11:24:29.301Z,7.20
2023-02-05T11:27:29.123Z,7.10
2023-02-05T11:29:59.884Z,7.00
2023-02-05T11:32:37.032Z,7.00
2023-02-05T11:35:20.506Z,7.10
2023-02-05T11:37:51.576Z,7.10
2023-02-05T11:40:25.677Z,7.00
2023-02-05T11:43:09.861Z,6.90
2023-02-05T11:45:40.808Z,6.80
2023-02-05T11:48:27.625Z,6.70
2023-02-05T11:50:57.288Z,6.60
2023-02-05T11:53:25.834Z,6.60
2023-02-05T11:55:56.195Z,6.50
2023-02-05T11:58:36.459Z,6.40
2023-02-05T12:01:07.135Z,6.40
2023-02-05T12:03:36.365Z,6.30
2023-02-05T12:06:15.243Z,6.30
2023-02-05T12:08:48.915Z,6.30
2023-02-05T12:11:59.603Z,6.40
2023-02-05T12:14:41.646Z,6.60
2023-02-05T12:17:23.442Z,6.50
2023-02-05T12:19:57.709Z,6.60
2023-02-05T12:22:43.976Z,6.90
2023-02-05T12:25:21.905Z,6.70
2023-02-05T12:28:04.284Z,6.80
2023-02-05T12:30:40.898Z,6.80
2023-02-05T12:33:28.421Z,6.80
2023-02-05T12:36:08.371Z,6.90
2023-02-05T12:38:50.926Z,6.80
2023-02-05T12:41:31.327Z,6.80
2023-02-05T12:44:11.287Z,6.80
2023-02-05T12:46:57.970Z,6.80
2023-02-05T12:49:47.510Z,6.80
2023-02-05T12:52:30.412Z,6.90
2023-02-05T12:55:13.584Z,6.90
2023-02-05T12:57:45.529Z,7.00
2023-02-05T13:00:22.076Z,7.10
2023-02-05T13:02:55.932Z,7.00
2023-02-05T13:05:29.808Z,6.80
2023-02-05T13:08:05.081Z,6.80
2023-02-05T13:10:45.356Z,6.60
2023-02-05T13:13:18.430Z,6.50
2023-02-05T13:15:52.242Z,6.70
2023-02-05T13:18:25.028Z,6.40
2023-02-05T13:21:16.361Z,6.40
2023-02-05T13:24:03.899Z,6.40
2023-02-05T13:26:57.516Z,6.40
2023-02-05T13:29:32.053Z,6.40
2023-02-05T13:32:15.228Z,6.40
2023-02-05T13:34:44.691Z,6.40
2023-02-05T13:37:38.317Z,6.30
2023-02-05T13:40:41.142Z,6.30
2023-02-05T13:43:49.144Z,6.10
2023-02-05T13:46:49.463Z,6.20
2023-02-05T13:49:59.117Z,6.10
2023-02-05T13:52:58.390Z,6.00
2023-02-05T13:56:02.373Z,6.00
2023-02-05T13:58:33.031Z,6.00
2023-02-05T14:01:06.254Z,5.90
2023-02-05T14:03:38.378Z,5.80
2023-02-05T14:06:24.202Z,5.70
2023-02-05T14:08:59.124Z,5.70
2023-02-05T14:11:27.462Z,5.60
2023-02-05T14:14:25.262Z,5.60
2023-02-05T14:16:56.201Z,5.60
2023-02-05T14:19:26.742Z,5.50
2023-02-05T14:22:13.973Z,5.80
2023-02-05T14:24:45.136Z,5.50
2023-02-05T14:27:50.195Z,5.70
2023-02-05T14:30:38.835Z,5.40
2023-02-05T14:33:31.045Z,5.40
2023-02-05T14:36:22.093Z,5.40
2023-02-05T14:38:54.564Z,5.60
2023-02-05T14:41:25.446Z,5.40
2023-02-05T14:43:59.125Z,5.40
2023-02-05T14:46:31.622Z,5.40
2023-02-05T14:49:03.492Z,5.50
2023-02-05T14:51:36.271Z,5.50
2023-02-05T14:54:08.490Z,5.40
2023-02-05T14:56:43.984Z,5.50
2023-02-05T14:59:22.454Z,5.50
2023-02-05T15:01:54.441Z,5.50
2023-02-05T15:04:41.953Z,5.50
2023-02-05T15:07:14.161Z,5.50
2023-02-05T15:09:46.767Z,5.50
2023-02-05T15:12:42.913Z,5.40
2023-02-05T15:15:32.662Z,5.40
2023-02-05T15:18:18.089Z,5.30
2023-02-05T15:20:50.004Z,5.30
2023-02-05T15:23:29.272Z,5.30
2023-02-05T15:26:01.983Z,5.20
2023-02-05T15:28:34.578Z,5.20
2023-02-05T15:31:22.847Z,5.10
2023-02-05T15:33:59.433Z,5.10
2023-02-05T15:36:35.482Z,5.10
2023-02-05T15:39:15.435Z,5.10
2023-02-05T15:41:46.459Z,5.10
2023-02-05T15:44:23.476Z,5.10
2023-02-05T15:46:52.622Z,5.00
2023-02-05T15:49:26.278Z,5.00
2023-02-05T15:51:57.002Z,5.00
2023-02-05T15:54:26.672Z,5.00
2023-02-05T15:56:55.703Z,5.00
2023-02-05T15:59:27.610Z,5.00
2023-02-05T16:02:04.257Z,5.00
2023-02-05T16:04:34.298Z,4.90
2023-02-05T16:07:04.940Z,4.90
2023-02-05T16:09:40.950Z,4.90
2023-02-05T16:12:13.205Z,4.90
2023-02-05T16:14:41.386Z,4.90
2023-02-05T16:17:29.761Z,5.00
2023-02-05T16:20:08.322Z,4.90
2023-02-05T16:22:41.574Z,4.90
2023-02-05T16:25:27.141Z,4.90
2023-02-05T16:27:57.055Z,5.00
2023-02-05T16:30:32.001Z,4.80
2023-02-05T16:33:02.896Z,4.80
2023-02-05T16:35:35.045Z,4.80
2023-02-05T16:38:09.239Z,4.80
2023-02-05T16:40:43.152Z,4.80
2023-02-05T16:43:30.314Z,4.80
2023-02-05T16:46:35.945Z,4.80
2023-02-05T16:49:05.597Z,4.70
2023-02-05T16:51:39.610Z,4.70
2023-02-05T16:54:29.475Z,4.70
2023-02-05T16:57:05.677Z,4.70
2023-02-05T16:59:36.493Z,4.70
2023-02-05T17:02:06.179Z,4.70
2023-02-05T17:04:37.060Z,4.70
2023-02-05T17:07:16.456Z,4.60
2023-02-05T17:09:46.295Z,4.70
2023-02-05T17:12:40.170Z,4.70
2023-02-05T17:15:37.093Z,4.70
2023-02-05T17:18:21.675Z,4.70
2023-02-05T17:20:50.429Z,4.60
2023-02-05T17:23:19.527Z,4.60
2023-02-05T17:25:55.568Z,4.60
2023-02-05T17:28:26.126Z,4.60
2023-02-05T17:30:58.873Z,4.60
2023-02-05T17:33:29.294Z,4.60
2023-02-05T17:35:57.563Z,4.60
2023-02-05T17:38:25.937Z,4.60
2023-02-05T17:41:15.687Z,4.80
2023-02-05T17:43:43.949Z,4.50
2023-02-05T17:46:14.740Z,4.50
2023-02-05T17:48:44.681Z,4.50
2023-02-05T17:51:19.788Z,4.50
2023-02-05T17:53:48.485Z,4.50
2023-02-05T17:56:19.200Z,4.60
2023-02-05T17:58:47.626Z,4.80
2023-02-05T18:01:16.085Z,4.50
2023-02-05T18:03:45.000Z,4.50
2023-02-05T18:06:15.157Z,4.50
2023-02-05T18:08:43.416Z,4.50
2023-02-05T18:11:12.014Z,4.50
2023-02-05T18:13:41.786Z,4.50
2023-02-05T18:16:12.223Z,4.50
2023-02-05T18:18:40.754Z,4.50
2023-02-05T18:21:09.821Z,4.50
2023-02-05T18:23:38.283Z,4.50
2023-02-05T18:26:08.332Z,4.40
2023-02-05T18:28:37.037Z,4.50
2023-02-05T18:31:09.499Z,4.50
2023-02-05T18:33:38.073Z,4.40
2023-02-05T18:36:08.639Z,4.40
2023-02-05T18:38:37.331Z,4.40
2023-02-05T18:41:07.119Z,4.40
2023-02-05T18:43:36.403Z,4.40
2023-02-05T18:46:11.338Z,4.40
2023-02-05T18:48:41.245Z,4.40
2023-02-05T18:51:11.733Z,4.40
2023-02-05T18:53:43.187Z,4.40
2023-02-05T18:56:14.886Z,4.40
2023-02-05T18:58:44.307Z,4.40
2023-02-05T19:01:16.620Z,4.40
2023-02-05T19:03:45.356Z,4.30
2023-02-05T19:06:15.781Z,4.30
2023-02-05T19:08:44.609Z,4.40
2023-02-05T19:11:14.600Z,4.30
2023-02-05T19:13:43.976Z,4.30
2023-02-05T19:16:15.148Z,4.30
2023-02-05T19:18:45.880Z,4.30
2023-02-05T19:21:16.264Z,4.30
2023-02-05T19:23:45.746Z,4.30
2023-02-05T19:26:16.746Z,4.50
2023-02-05T19:28:46.565Z,4.30
2023-02-05T19:31:16.932Z,4.30
2023-02-05T19:33:46.738Z,4.20
2023-02-05T19:36:15.671Z,4.20
2023-02-05T19:38:44.204Z,4.20
2023-02-05T19:41:13.945Z,4.30
2023-02-05T19:43:43.742Z,4.20
2023-02-05T19:46:16.169Z,4.20
2023-02-05T19:48:44.606Z,4.20
2023-02-05T19:51:14.785Z,4.20
2023-02-05T19:53:45.439Z,4.20
2023-02-05T19:56:16.047Z,4.20
2023-02-05T19:58:46.055Z,4.20
2023-02-05T20:01:18.416Z,4.20
2023-02-05T20:03:47.216Z,4.30
2023-02-05T20:06:17.064Z,4.20
2023-02-05T20:08:46.228Z,4.40
2023-02-05T20:11:15.242Z,4.30
2023-02-05T20:13:44.241Z,4.20
2023-02-05T20:16:14.856Z,4.20
2023-02-05T20:18:44.812Z,4.20
2023-02-05T20:21:14.650Z,4.20
2023-02-05T20:23:43.388Z,4.20
2023-02-05T20:26:12.051Z,4.20
2023-02-05T20:28:55.776Z,4.20
2023-02-05T20:31:41.217Z,4.20
2023-02-05T20:34:18.233Z,4.20
2023-02-05T20:36:47.597Z,4.10
2023-02-05T20:39:17.266Z,4.10
2023-02-05T20:41:45.761Z,4.10
2023-02-05T20:44:14.676Z,4.10
2023-02-05T20:46:43.158Z,4.10
2023-02-05T20:49:12.986Z,4.30
2023-02-05T20:51:41.514Z,3.90
2023-02-05T20:54:10.407Z,4.00
2023-02-05T20:56:39.301Z,4.00
2023-02-05T20:59:09.576Z,4.00
2023-02-05T21:01:39.118Z,4.20
2023-02-05T21:04:09.992Z,4.10
2023-02-05T21:06:41.218Z,4.10
2023-02-05T21:09:10.558Z,4.10
2023-02-05T21:11:39.068Z,4.10
2023-02-05T21:14:07.776Z,4.10
2023-02-05T21:16:37.240Z,4.10
2023-02-05T21:19:07.450Z,4.00
2023-02-05T21:21:38.215Z,4.10
2023-02-05T21:24:10.887Z,4.10
2023-02-05T21:26:41.691Z,4.10
2023-02-05T21:29:12.628Z,4.10
2023-02-05T21:31:44.747Z,4.10
2023-02-05T21:34:15.462Z,4.10
2023-02-05T21:36:43.872Z,4.10
2023-02-05T21:39:15.675Z,4.10
2023-02-05T21:41:44.883Z,4.10
2023-02-05T21:44:13.154Z,4.10
2023-02-05T21:46:41.523Z,4.10
2023-02-05T21:49:11.309Z,4.10
2023-02-05T21:51:39.971Z,4.10
2023-02-05T21:54:08.528Z,4.10
2023-02-05T21:56:40.744Z,4.10
2023-02-05T21:59:09.608Z,4.10
2023-02-05T22:01:39.232Z,4.10
2023-02-05T22:04:10.370Z,4.10
2023-02-05T22:06:39.253Z,4.10
2023-02-05T22:09:09.921Z,4.10
2023-02-05T22:11:40.523Z,4.10
2023-02-05T22:14:09.105Z,4.00
2023-02-05T22:16:38.238Z,4.00
2023-02-05T22:19:07.260Z,4.10
2023-02-05T22:21:37.308Z,4.10
2023-02-05T22:24:06.552Z,3.90
2023-02-05T22:26:36.677Z,4.00
2023-02-05T22:29:08.546Z,4.10
2023-02-05T22:31:37.452Z,4.00
2023-02-05T22:34:06.010Z,4.00
2023-02-05T22:36:35.727Z,4.00
2023-02-05T22:39:05.956Z,3.90
2023-02-05T22:41:35.828Z,3.90
2023-02-05T22:44:07.144Z,3.90
2023-02-05T22:46:38.953Z,3.90
2023-02-05T22:49:07.476Z,3.90
2023-02-05T22:51:37.376Z,3.90
2023-02-05T22:54:06.535Z,3.90
2023-02-05T22:56:36.563Z,3.90
2023-02-05T22:59:06.321Z,3.90
2023-02-05T23:01:35.914Z,3.80
2023-02-05T23:04:06.398Z,3.90
2023-02-05T23:06:36.953Z,3.90
2023-02-05T23:09:07.596Z,3.90
2023-02-05T23:11:36.491Z,3.90
2023-02-05T23:14:07.294Z,4.10
2023-02-05T23:16:37.114Z,3.90
2023-02-05T23:19:08.240Z,3.90
2023-02-05T23:21:37.307Z,3.80
2023-02-05T23:24:06.199Z,3.80
2023-02-05T23:26:38.458Z,3.70
2023-02-05T23:29:08.163Z,3.60
2023-02-05T23:31:37.482Z,3.50
2023-02-05T23:34:06.390Z,3.30
2023-02-05T23:36:37.487Z,3.60
2023-02-05T23:39:05.930Z,3.40
2023-02-05T23:41:37.045Z,3.40
2023-02-05T23:44:10.879Z,3.30
2023-02-05T23:46:40.099Z,3.30
2023-02-05T23:49:08.688Z,3.30
2023-02-05T23:51:36.707Z,3.20
2023-02-05T23:54:05.609Z,3.40
2023-02-05T23:56:33.765Z,3.10
2023-02-05T23:59:02.094Z,2.90
